createdAt,value
2023-04-01T00:00:18.997Z,93876.00
2023-04-01T00:01:19.100Z,93876.00
2023-04-01T00:02:19.148Z,93872.00
2023-04-01T00:03:19.330Z,93870.00
2023-04-01T00:04:19.269Z,93870.00
2023-04-01T00:05:19.299Z,93872.00
2023-04-01T00:06:19.341Z,93876.00
2023-04-01T00:07:19.373Z,93878.00
2023-04-01T00:08:19.411Z,93876.00
2023-04-01T00:09:19.456Z,93874.00
2023-04-01T00:10:19.504Z,93870.00
2023-04-01T00:11:20.482Z,93870.00
2023-04-01T00:12:19.624Z,93874.00
2023-04-01T00:13:19.640Z,93874.00
2023-04-01T00:14:19.702Z,93874.00
2023-04-01T00:15:19.752Z,93876.00
2023-04-01T00:16:21.650Z,93876.00
2023-04-01T00:17:19.785Z,93872.00
2023-04-01T00:18:19.760Z,93872.00
2023-04-01T00:19:19.770Z,93874.00
2023-04-01T00:20:19.751Z,93872.00
2023-04-01T00:21:19.753Z,93874.00
2023-04-01T00:22:19.745Z,93874.00
2023-04-01T00:23:19.740Z,93872.00
2023-04-01T00:24:19.719Z,93870.00
2023-04-01T00:25:19.743Z,93870.00
2023-04-01T00:26:19.754Z,93868.00
2023-04-01T00:27:19.703Z,93866.00
2023-04-01T00:28:19.730Z,93852.00
2023-04-01T00:29:19.733Z,93862.00
2023-04-01T00:30:19.697Z,93862.00
2023-04-01T00:31:19.710Z,93864.00
2023-04-01T00:32:19.701Z,93848.00
2023-04-01T00:33:19.699Z,93860.00
2023-04-01T00:34:19.699Z,93852.00
2023-04-01T00:35:19.668Z,93864.00
2023-04-01T00:36:19.707Z,93866.00
2023-04-01T00:37:19.652Z,93868.00
2023-04-01T00:38:19.647Z,93870.00
2023-04-01T00:39:19.659Z,93868.00
2023-04-01T00:40:19.638Z,93866.00
2023-04-01T00:41:19.652Z,93866.00
2023-04-01T00:42:19.638Z,93862.00
2023-04-01T00:43:19.601Z,93864.00
2023-04-01T00:44:19.639Z,93852.00
2023-04-01T00:45:19.611Z,93860.00
2023-04-01T00:46:19.685Z,93862.00
2023-04-01T00:47:19.578Z,93862.00
2023-04-01T00:48:19.571Z,93860.00
2023-04-01T00:49:19.612Z,93852.00
2023-04-01T00:50:19.563Z,93862.00
2023-04-01T00:51:19.581Z,93866.00
2023-04-01T00:52:19.550Z,93868.00
2023-04-01T00:53:19.556Z,93864.00
2023-04-01T00:54:19.542Z,93862.00
2023-04-01T00:55:19.532Z,93862.00
2023-04-01T00:56:19.580Z,93860.00
2023-04-01T00:57:19.648Z,93860.00
2023-04-01T00:58:19.688Z,93864.00
2023-04-01T00:59:19.759Z,93860.00
2023-04-01T01:00:19.808Z,93850.00
2023-04-01T01:01:19.871Z,93852.00
2023-04-01T01:02:19.903Z,93850.00
2023-04-01T01:03:19.998Z,93848.00
2023-04-01T01:04:20.022Z,93850.00
2023-04-01T01:05:20.078Z,93852.00
2023-04-01T01:06:20.125Z,93848.00
2023-04-01T01:07:20.186Z,93846.00
2023-04-01T01:08:20.282Z,93844.00
2023-04-01T01:09:20.337Z,93840.00
2023-04-01T01:10:20.383Z,93838.00
2023-04-01T01:11:20.623Z,93838.00
2023-04-01T01:12:20.510Z,93846.00
2023-04-01T01:13:20.532Z,93850.00
2023-04-01T01:14:20.628Z,93850.00
2023-04-01T01:15:20.679Z,93846.00
2023-04-01T01:16:20.749Z,93844.00
2023-04-01T01:17:20.829Z,93842.00
2023-04-01T01:18:20.879Z,93840.00
2023-04-01T01:19:20.925Z,93840.00
2023-04-01T01:20:26.327Z,93837.00
2023-04-01T01:21:21.982Z,93837.00
2023-04-01T01:22:20.949Z,93835.00
2023-04-01T01:23:20.942Z,93837.00
2023-04-01T01:24:20.938Z,93833.00
2023-04-01T01:25:20.926Z,93835.00
2023-04-01T01:26:20.935Z,93838.00
2023-04-01T01:27:20.917Z,93835.00
2023-04-01T01:28:20.902Z,93833.00
2023-04-01T01:29:20.961Z,93833.00
2023-04-01T01:30:21.008Z,93835.00
2023-04-01T01:31:21.097Z,93835.00
2023-04-01T01:32:21.125Z,93837.00
2023-04-01T01:33:21.184Z,93838.00
2023-04-01T01:34:21.274Z,93838.00
2023-04-01T01:35:21.290Z,93837.00
2023-04-01T01:36:21.389Z,93837.00
2023-04-01T01:37:21.421Z,93837.00
2023-04-01T01:38:21.597Z,93837.00
2023-04-01T01:39:21.551Z,93837.00
2023-04-01T01:40:21.604Z,93838.00
2023-04-01T01:41:21.666Z,93837.00
2023-04-01T01:42:21.708Z,93837.00
2023-04-01T01:43:21.810Z,93835.00
2023-04-01T01:44:21.863Z,93833.00
2023-04-01T01:45:21.898Z,93829.00
2023-04-01T01:46:22.098Z,93825.00
2023-04-01T01:47:22.043Z,93823.00
2023-04-01T01:48:22.110Z,93823.00
2023-04-01T01:49:22.187Z,93823.00
2023-04-01T01:50:22.225Z,93821.00
2023-04-01T01:51:22.247Z,93821.00
2023-04-01T01:52:22.337Z,93823.00
2023-04-01T01:53:22.403Z,93823.00
2023-04-01T01:54:22.475Z,93823.00
2023-04-01T01:55:22.526Z,93823.00
2023-04-01T01:56:22.586Z,93823.00
2023-04-01T01:57:22.761Z,93819.00
2023-04-01T01:58:22.680Z,93823.00
2023-04-01T01:59:22.793Z,93819.00
2023-04-01T02:00:22.820Z,93823.00
2023-04-01T02:01:22.909Z,93821.00
2023-04-01T02:02:23.007Z,93817.00
2023-04-01T02:03:22.986Z,93819.00
2023-04-01T02:04:23.160Z,93813.00
2023-04-01T02:05:23.109Z,93815.00
2023-04-01T02:06:23.182Z,93817.00
2023-04-01T02:07:23.233Z,93815.00
2023-04-01T02:08:23.308Z,93813.00
2023-04-01T02:09:23.365Z,93811.00
2023-04-01T02:10:23.400Z,93809.00
2023-04-01T02:11:23.489Z,93811.00
2023-04-01T02:12:23.527Z,93809.00
2023-04-01T02:13:23.592Z,93807.00
2023-04-01T02:14:23.654Z,93805.00
2023-04-01T02:15:23.716Z,93809.00
2023-04-01T02:16:23.805Z,93811.00
2023-04-01T02:17:23.837Z,93813.00
2023-04-01T02:18:23.870Z,93815.00
2023-04-01T02:19:23.926Z,93813.00
2023-04-01T02:20:24.006Z,93817.00
2023-04-01T02:21:24.040Z,93819.00
2023-04-01T02:22:24.090Z,93821.00
2023-04-01T02:23:24.153Z,93821.00
2023-04-01T02:24:24.228Z,93825.00
2023-04-01T02:25:24.375Z,93829.00
2023-04-01T02:26:24.384Z,93829.00
2023-04-01T02:27:24.430Z,93831.00
2023-04-01T02:28:24.470Z,93833.00
2023-04-01T02:29:24.541Z,93831.00
2023-04-01T02:30:24.601Z,93831.00
2023-04-01T02:31:24.713Z,93833.00
2023-04-01T02:32:24.730Z,93831.00
2023-04-01T02:33:24.775Z,93835.00
2023-04-01T02:34:24.911Z,93838.00
2023-04-01T02:35:24.932Z,93833.00
2023-04-01T02:36:25.065Z,93835.00
2023-04-01T02:37:25.060Z,93833.00
2023-04-01T02:38:25.121Z,93837.00
2023-04-01T02:39:25.146Z,93838.00
2023-04-01T02:40:25.224Z,93837.00
2023-04-01T02:41:25.279Z,93833.00
2023-04-01T02:42:25.352Z,93833.00
2023-04-01T02:43:25.400Z,93835.00
2023-04-01T02:44:25.473Z,93833.00
2023-04-01T02:45:25.516Z,93833.00
2023-04-01T02:46:25.628Z,93835.00
2023-04-01T02:47:25.654Z,93835.00
2023-04-01T02:48:25.713Z,93835.00
2023-04-01T02:49:25.782Z,93838.00
2023-04-01T02:50:25.839Z,93842.00
2023-04-01T02:51:25.897Z,93844.00
2023-04-01T02:52:25.938Z,93846.00
2023-04-01T02:53:26.024Z,93846.00
2023-04-01T02:54:26.077Z,93852.00
2023-04-01T02:55:26.134Z,93850.00
2023-04-01T02:56:26.185Z,93852.00
2023-04-01T02:57:26.312Z,93850.00
2023-04-01T02:58:26.312Z,93860.00
2023-04-01T02:59:26.373Z,93860.00
2023-04-01T03:00:26.428Z,93862.00
2023-04-01T03:01:26.521Z,93862.00
2023-04-01T03:02:26.603Z,93866.00
2023-04-01T03:03:26.648Z,93868.00
2023-04-01T03:04:26.670Z,93868.00
2023-04-01T03:05:26.705Z,93866.00
2023-04-01T03:06:26.765Z,93868.00
2023-04-01T03:07:26.850Z,93870.00
2023-04-01T03:08:26.886Z,93872.00
2023-04-01T03:09:26.995Z,93876.00
2023-04-01T03:10:27.026Z,93878.00
2023-04-01T03:11:27.082Z,93880.00
2023-04-01T03:12:27.114Z,93878.00
2023-04-01T03:13:27.235Z,93880.00
2023-04-01T03:14:27.259Z,93880.00
2023-04-01T03:15:27.346Z,93880.00
2023-04-01T03:16:27.401Z,93885.00
2023-04-01T03:17:27.452Z,93883.00
2023-04-01T03:18:27.502Z,93889.00
2023-04-01T03:19:27.558Z,93893.00
2023-04-01T03:20:27.610Z,93895.00
2023-04-01T03:21:27.663Z,93899.00
2023-04-01T03:22:27.769Z,93901.00
2023-04-01T03:23:27.786Z,93903.00
2023-04-01T03:24:27.856Z,93905.00
2023-04-01T03:25:27.901Z,93903.00
2023-04-01T03:26:27.962Z,93901.00
2023-04-01T03:27:28.044Z,93899.00
2023-04-01T03:28:28.069Z,93897.00
2023-04-01T03:29:28.154Z,93895.00
2023-04-01T03:30:28.309Z,93893.00
2023-04-01T03:31:28.269Z,93893.00
2023-04-01T03:32:28.190Z,93891.00
2023-04-01T03:33:28.173Z,93893.00
2023-04-01T03:34:28.186Z,93893.00
2023-04-01T03:35:28.170Z,93893.00
2023-04-01T03:36:28.252Z,93895.00
2023-04-01T03:37:28.137Z,93895.00
2023-04-01T03:38:28.301Z,93899.00
2023-04-01T03:39:28.272Z,93901.00
2023-04-01T03:40:28.282Z,93899.00
2023-04-01T03:41:28.380Z,93899.00
2023-04-01T03:42:28.453Z,93899.00
2023-04-01T03:43:28.530Z,93903.00
2023-04-01T03:44:28.580Z,93903.00
2023-04-01T03:45:28.592Z,93903.00
2023-04-01T03:46:28.729Z,93901.00
2023-04-01T03:48:03.483Z,93901.00
2023-04-01T03:49:03.484Z,93895.00
2023-04-01T03:50:03.504Z,93899.00
2023-04-01T03:51:03.464Z,93899.00
2023-04-01T03:52:03.444Z,93901.00
2023-04-01T03:53:03.458Z,93899.00
2023-04-01T03:54:03.463Z,93901.00
2023-04-01T03:55:03.436Z,93903.00
2023-04-01T03:56:03.410Z,93907.00
2023-04-01T03:57:03.502Z,93905.00
2023-04-01T03:58:03.407Z,93905.00
2023-04-01T03:59:03.429Z,93905.00
2023-04-01T04:00:03.417Z,93905.00
2023-04-01T04:01:03.387Z,93907.00
2023-04-01T04:02:03.429Z,93905.00
2023-04-01T04:03:03.458Z,93901.00
2023-04-01T04:04:03.441Z,93897.00
2023-04-01T04:05:03.389Z,93893.00
2023-04-01T04:06:05.123Z,93895.00
2023-04-01T04:07:03.419Z,93899.00
2023-04-01T04:08:03.363Z,93903.00
2023-04-01T04:09:03.380Z,93905.00
2023-04-01T04:10:03.330Z,93907.00
2023-04-01T04:11:03.341Z,93911.00
2023-04-01T04:12:03.326Z,93911.00
2023-04-01T04:13:03.360Z,93911.00
2023-04-01T04:14:03.306Z,93911.00
2023-04-01T04:15:03.314Z,93911.00
2023-04-01T04:16:03.396Z,93913.00
2023-04-01T04:17:03.368Z,93915.00
2023-04-01T04:18:03.462Z,93917.00
2023-04-01T04:19:03.497Z,93917.00
2023-04-01T04:20:03.583Z,93915.00
2023-04-01T04:21:03.623Z,93919.00
2023-04-01T04:22:03.689Z,93923.00
2023-04-01T04:23:03.729Z,93925.00
2023-04-01T04:24:03.782Z,93931.00
2023-04-01T04:25:03.854Z,93933.00
2023-04-01T04:26:03.941Z,93935.00
2023-04-01T04:27:03.996Z,93933.00
2023-04-01T04:28:04.068Z,93937.00
2023-04-01T04:29:04.121Z,93937.00
2023-04-01T04:30:04.190Z,93938.00
2023-04-01T04:31:04.235Z,93937.00
2023-04-01T04:32:04.387Z,93938.00
2023-04-01T04:33:04.489Z,93940.00
2023-04-01T04:34:04.426Z,93940.00
2023-04-01T04:35:04.443Z,93942.00
2023-04-01T04:36:04.549Z,93946.00
2023-04-01T04:37:04.586Z,93948.00
2023-04-01T04:38:04.649Z,93948.00
2023-04-01T04:39:04.702Z,93946.00
2023-04-01T04:40:04.765Z,93944.00
2023-04-01T04:41:04.817Z,93942.00
2023-04-01T04:42:04.872Z,93938.00
2023-04-01T04:43:04.936Z,93940.00
2023-04-01T04:44:04.987Z,93940.00
2023-04-01T04:45:05.070Z,93940.00
2023-04-01T04:46:05.113Z,93937.00
2023-04-01T04:47:05.228Z,93938.00
2023-04-01T04:48:05.250Z,93940.00
2023-04-01T04:49:05.269Z,93940.00
2023-04-01T04:50:05.343Z,93944.00
2023-04-01T04:51:05.402Z,93946.00
2023-04-01T04:52:05.447Z,93944.00
2023-04-01T04:53:05.538Z,93944.00
2023-04-01T04:54:05.580Z,93944.00
2023-04-01T04:55:05.682Z,93944.00
2023-04-01T04:56:05.689Z,93944.00
2023-04-01T04:57:05.816Z,93946.00
2023-04-01T04:58:05.812Z,93948.00
2023-04-01T04:59:05.963Z,93950.00
2023-04-01T05:00:05.951Z,93950.00
2023-04-01T05:01:06.030Z,93948.00
2023-04-01T05:02:06.133Z,93946.00
2023-04-01T05:03:06.267Z,93946.00
2023-04-01T05:04:06.241Z,93946.00
2023-04-01T05:06:23.686Z,93950.00
2023-04-01T05:07:22.261Z,93954.00
2023-04-01T05:08:22.316Z,93952.00
2023-04-01T05:09:22.287Z,93958.00
2023-04-01T05:10:22.282Z,93958.00
2023-04-01T05:11:22.281Z,93958.00
2023-04-01T05:12:22.243Z,93962.00
2023-04-01T05:13:22.250Z,93964.00
2023-04-01T05:14:22.236Z,93964.00
2023-04-01T05:15:22.245Z,93966.00
2023-04-01T05:16:22.289Z,93964.00
2023-04-01T05:17:22.266Z,93962.00
2023-04-01T05:18:22.219Z,93958.00
2023-04-01T05:19:22.225Z,93956.00
2023-04-01T05:20:22.205Z,93956.00
2023-04-01T05:21:22.279Z,93958.00
2023-04-01T05:22:22.357Z,93956.00
2023-04-01T05:23:22.364Z,93960.00
2023-04-01T05:24:22.462Z,93962.00
2023-04-01T05:25:22.501Z,93962.00
2023-04-01T05:26:22.562Z,93962.00
2023-04-01T05:27:22.651Z,93964.00
2023-04-01T05:28:22.708Z,93962.00
2023-04-01T05:29:22.756Z,93968.00
2023-04-01T05:30:22.779Z,93968.00
2023-04-01T05:31:22.898Z,93974.00
2023-04-01T05:32:22.992Z,93968.00
2023-04-01T05:33:22.996Z,93970.00
2023-04-01T05:34:23.060Z,93968.00
2023-04-01T05:35:23.135Z,93964.00
2023-04-01T05:36:23.124Z,93966.00
2023-04-01T05:37:23.168Z,93968.00
2023-04-01T05:38:23.229Z,93966.00
2023-04-01T05:39:23.325Z,93968.00
2023-04-01T05:40:23.351Z,93968.00
2023-04-01T05:41:23.398Z,93968.00
2023-04-01T05:42:23.461Z,93968.00
2023-04-01T05:43:23.519Z,93964.00
2023-04-01T05:44:23.573Z,93964.00
2023-04-01T05:45:23.655Z,93964.00
2023-04-01T05:46:23.764Z,93964.00
2023-04-01T05:47:23.824Z,93964.00
2023-04-01T05:48:23.864Z,93964.00
2023-04-01T05:49:24.075Z,93964.00
2023-04-01T05:50:23.969Z,93962.00
2023-04-01T05:51:23.983Z,93964.00
2023-04-01T05:52:24.040Z,93966.00
2023-04-01T05:53:24.088Z,93968.00
2023-04-01T05:54:24.121Z,93972.00
2023-04-01T05:55:24.220Z,93972.00
2023-04-01T05:56:24.254Z,93972.00
2023-04-01T05:57:24.328Z,93972.00
2023-04-01T05:58:24.355Z,93974.00
2023-04-01T05:59:24.431Z,93972.00
2023-04-01T06:00:24.468Z,93972.00
2023-04-01T06:01:24.528Z,93974.00
2023-04-01T06:02:24.658Z,93978.00
2023-04-01T06:03:24.945Z,93976.00
2023-04-01T06:04:24.772Z,93974.00
2023-04-01T06:05:24.771Z,93972.00
2023-04-01T06:06:24.803Z,93970.00
2023-04-01T06:07:24.875Z,93970.00
2023-04-01T06:08:24.918Z,93970.00
2023-04-01T06:09:24.975Z,93970.00
2023-04-01T06:10:25.040Z,93974.00
2023-04-01T06:11:25.101Z,93976.00
2023-04-01T06:12:25.158Z,93978.00
2023-04-01T06:13:25.197Z,93976.00
2023-04-01T06:14:25.241Z,93980.00
2023-04-01T06:15:25.365Z,93980.00
2023-04-01T06:16:25.508Z,93980.00
2023-04-01T06:17:25.458Z,93982.00
2023-04-01T06:18:25.507Z,93980.00
2023-04-01T06:19:25.569Z,93984.00
2023-04-01T06:20:25.619Z,93985.00
2023-04-01T06:21:25.693Z,93984.00
2023-04-01T06:22:25.743Z,93985.00
2023-04-01T06:23:25.786Z,93984.00
2023-04-01T06:24:25.864Z,93984.00
2023-04-01T06:25:25.932Z,93982.00
2023-04-01T06:26:25.978Z,93984.00
2023-04-01T06:27:26.049Z,93987.00
2023-04-01T06:28:26.140Z,93987.00
2023-04-01T06:29:26.136Z,93989.00
2023-04-01T06:30:26.224Z,93989.00
2023-04-01T06:31:26.319Z,93991.00
2023-04-01T06:32:26.377Z,93989.00
2023-04-01T06:33:26.383Z,93991.00
2023-04-01T06:34:26.433Z,93997.00
2023-04-01T06:35:26.505Z,93993.00
2023-04-01T06:36:26.636Z,93989.00
2023-04-01T06:37:26.618Z,93989.00
2023-04-01T06:38:26.708Z,93989.00
2023-04-01T06:39:26.732Z,93987.00
2023-04-01T06:40:26.824Z,93985.00
2023-04-01T06:41:26.853Z,93984.00
2023-04-01T06:42:26.949Z,93978.00
2023-04-01T06:43:26.994Z,93974.00
2023-04-01T06:44:27.058Z,93970.00
2023-04-01T06:45:27.092Z,93968.00
2023-04-01T06:46:27.159Z,93968.00
2023-04-01T06:47:27.265Z,93968.00
2023-04-01T06:48:27.264Z,93964.00
2023-04-01T06:49:27.311Z,93964.00
2023-04-01T06:50:27.416Z,93962.00
2023-04-01T06:51:27.448Z,93962.00
2023-04-01T06:52:27.470Z,93964.00
2023-04-01T06:53:27.529Z,93964.00
2023-04-01T06:54:27.613Z,93962.00
2023-04-01T06:55:27.878Z,93960.00
2023-04-01T06:56:27.711Z,93960.00
2023-04-01T06:57:27.880Z,93958.00
2023-04-01T06:58:27.855Z,93960.00
2023-04-01T06:59:27.907Z,93960.00
2023-04-01T07:00:27.963Z,93964.00
2023-04-01T07:01:28.053Z,93966.00
2023-04-01T07:02:28.095Z,93966.00
2023-04-01T07:03:28.120Z,93964.00
2023-04-01T07:04:28.257Z,93962.00
2023-04-01T07:05:28.247Z,93964.00
2023-04-01T07:06:28.296Z,93962.00
2023-04-01T07:07:28.443Z,93962.00
2023-04-01T07:08:28.432Z,93962.00
2023-04-01T07:09:28.481Z,93964.00
2023-04-01T07:10:28.528Z,93964.00
2023-04-01T07:11:28.587Z,93966.00
2023-04-01T07:12:28.667Z,93966.00
2023-04-01T07:13:28.721Z,93966.00
2023-04-01T07:14:28.783Z,93966.00
2023-04-01T07:15:28.864Z,93962.00
2023-04-01T07:16:29.117Z,93966.00
2023-04-01T07:17:29.006Z,93964.00
2023-04-01T07:18:29.089Z,93962.00
2023-04-01T07:19:29.124Z,93962.00
2023-04-01T07:20:29.134Z,93964.00
2023-04-01T07:21:30.527Z,93964.00
2023-04-01T07:22:29.289Z,93962.00
2023-04-01T07:23:29.321Z,93962.00
2023-04-01T07:24:29.358Z,93962.00
2023-04-01T07:25:29.440Z,93962.00
2023-04-01T07:26:29.526Z,93962.00
2023-04-01T07:27:29.550Z,93962.00
2023-04-01T07:28:29.612Z,93962.00
2023-04-01T07:29:29.658Z,93960.00
2023-04-01T07:30:29.736Z,93962.00
2023-04-01T07:31:29.841Z,93964.00
2023-04-01T07:32:30.122Z,93962.00
2023-04-01T07:33:29.914Z,93964.00
2023-04-01T07:34:29.952Z,93964.00
2023-04-01T07:35:30.033Z,93968.00
2023-04-01T07:36:30.081Z,93968.00
2023-04-01T07:37:30.167Z,93968.00
2023-04-01T07:38:30.342Z,93972.00
2023-04-01T07:39:30.281Z,93974.00
2023-04-01T07:40:30.341Z,93976.00
2023-04-01T07:41:30.421Z,93978.00
2023-04-01T07:42:30.454Z,93976.00
2023-04-01T07:43:30.515Z,93978.00
2023-04-01T07:44:30.583Z,93976.00
2023-04-01T07:45:30.688Z,93976.00
2023-04-01T07:46:30.721Z,93980.00
2023-04-01T07:47:30.727Z,93974.00
2023-04-01T07:48:30.790Z,93974.00
2023-04-01T07:49:30.829Z,93978.00
2023-04-01T07:50:30.946Z,93978.00
2023-04-01T07:51:30.980Z,93978.00
2023-04-01T07:52:31.045Z,93980.00
2023-04-01T07:53:31.088Z,93982.00
2023-04-01T07:54:31.143Z,93980.00
2023-04-01T07:55:31.420Z,93982.00
2023-04-01T07:56:31.261Z,93982.00
2023-04-01T07:57:31.370Z,93982.00
2023-04-01T07:58:31.436Z,93982.00
2023-04-01T07:59:31.468Z,93984.00
2023-04-01T08:00:31.511Z,93984.00
2023-04-01T08:01:31.562Z,93984.00
2023-04-01T08:02:31.752Z,93982.00
2023-04-01T08:03:31.820Z,93980.00
2023-04-01T08:04:31.826Z,93978.00
2023-04-01T08:05:32.133Z,93974.00
2023-04-01T08:06:31.877Z,93972.00
2023-04-01T08:07:31.933Z,93970.00
2023-04-01T08:08:31.978Z,93972.00
2023-04-01T08:09:32.064Z,93972.00
2023-04-01T08:10:32.085Z,93970.00
2023-04-01T08:11:32.184Z,93970.00
2023-04-01T08:12:32.251Z,93970.00
2023-04-01T08:13:32.276Z,93968.00
2023-04-01T08:14:32.368Z,93968.00
2023-04-01T08:15:32.646Z,93970.00
2023-04-01T08:16:32.492Z,93964.00
2023-04-01T08:17:32.569Z,93966.00
2023-04-01T08:18:32.580Z,93964.00
2023-04-01T08:19:32.659Z,93964.00
2023-04-01T08:20:32.720Z,93964.00
2023-04-01T08:21:32.749Z,93968.00
2023-04-01T08:22:32.835Z,93962.00
2023-04-01T08:23:32.897Z,93962.00
2023-04-01T08:24:44.469Z,93960.00
2023-04-01T08:25:34.182Z,93956.00
2023-04-01T08:26:32.971Z,93956.00
2023-04-01T08:27:32.928Z,93954.00
2023-04-01T08:28:32.940Z,93952.00
2023-04-01T08:29:32.922Z,93950.00
2023-04-01T08:30:32.902Z,93946.00
2023-04-01T08:31:32.932Z,93944.00
2023-04-01T08:32:32.929Z,93948.00
2023-04-01T08:33:32.888Z,93940.00
2023-04-01T08:34:32.981Z,93938.00
2023-04-01T08:35:34.906Z,93938.00
2023-04-01T08:36:33.024Z,93944.00
2023-04-01T08:37:33.027Z,93948.00
2023-04-01T08:38:32.962Z,93944.00
2023-04-01T08:39:32.960Z,93942.00
2023-04-01T08:40:32.981Z,93942.00
2023-04-01T08:41:32.951Z,93942.00
2023-04-01T08:42:32.959Z,93940.00
2023-04-01T08:43:32.972Z,93938.00
2023-04-01T08:44:32.933Z,93940.00
2023-04-01T08:45:33.244Z,93938.00
2023-04-01T08:46:32.932Z,93937.00
2023-04-01T08:47:32.945Z,93938.00
2023-04-01T08:48:32.928Z,93935.00
2023-04-01T08:49:32.904Z,93940.00
2023-04-01T08:50:32.922Z,93940.00
2023-04-01T08:51:32.884Z,93940.00
2023-04-01T08:52:32.873Z,93938.00
2023-04-01T08:53:32.883Z,93938.00
2023-04-01T08:54:32.894Z,93937.00
2023-04-01T08:55:33.091Z,93938.00
2023-04-01T08:56:32.870Z,93940.00
2023-04-01T08:57:33.003Z,93938.00
2023-04-01T08:58:32.846Z,93938.00
2023-04-01T08:59:32.841Z,93937.00
2023-04-01T09:00:32.878Z,93933.00
2023-04-01T09:01:32.881Z,93933.00
2023-04-01T09:02:32.941Z,93937.00
2023-04-01T09:03:32.928Z,93933.00
2023-04-01T09:04:32.928Z,93933.00
2023-04-01T09:05:33.016Z,93935.00
2023-04-01T09:06:32.825Z,93937.00
2023-04-01T09:07:32.773Z,93933.00
2023-04-01T09:08:32.780Z,93929.00
2023-04-01T09:09:32.796Z,93929.00
2023-04-01T09:10:32.783Z,93933.00
2023-04-01T09:11:32.830Z,93929.00
2023-04-01T09:12:32.775Z,93927.00
2023-04-01T09:13:32.805Z,93923.00
2023-04-01T09:14:32.865Z,93921.00
2023-04-01T09:15:33.283Z,93921.00
2023-04-01T09:16:33.109Z,93921.00
2023-04-01T09:17:33.023Z,93919.00
2023-04-01T09:18:33.093Z,93913.00
2023-04-01T09:19:33.131Z,93913.00
2023-04-01T09:20:33.180Z,93913.00
2023-04-01T09:21:33.249Z,93913.00
2023-04-01T09:22:33.310Z,93911.00
2023-04-01T09:23:33.345Z,93909.00
2023-04-01T09:24:33.502Z,93903.00
2023-04-01T09:25:33.665Z,93903.00
2023-04-01T09:26:33.524Z,93905.00
2023-04-01T09:27:33.616Z,93901.00
2023-04-01T09:28:33.624Z,93901.00
2023-04-01T09:29:33.713Z,93899.00
2023-04-01T09:30:33.747Z,93899.00
2023-04-01T09:31:33.915Z,93897.00
2023-04-01T09:32:33.829Z,93897.00
2023-04-01T09:33:33.874Z,93893.00
2023-04-01T09:34:33.914Z,93893.00
2023-04-01T09:35:34.112Z,93895.00
2023-04-01T09:36:34.054Z,93891.00
2023-04-01T09:37:34.095Z,93887.00
2023-04-01T09:38:34.095Z,93883.00
2023-04-01T09:39:34.166Z,93885.00
2023-04-01T09:40:34.232Z,93885.00
2023-04-01T09:41:35.307Z,93887.00
2023-04-01T09:42:34.303Z,93887.00
2023-04-01T09:43:34.366Z,93887.00
2023-04-01T09:44:34.411Z,93883.00
2023-04-01T09:45:34.622Z,93882.00
2023-04-01T09:46:34.533Z,93882.00
2023-04-01T09:47:34.570Z,93878.00
2023-04-01T09:48:34.607Z,93874.00
2023-04-01T09:49:34.620Z,93878.00
2023-04-01T09:50:34.672Z,93878.00
2023-04-01T09:51:34.764Z,93878.00
2023-04-01T09:52:34.796Z,93876.00
2023-04-01T09:53:34.824Z,93872.00
2023-04-01T09:54:34.888Z,93872.00
2023-04-01T09:55:35.098Z,93876.00
2023-04-01T09:56:34.955Z,93868.00
2023-04-01T09:57:35.051Z,93870.00
2023-04-01T09:58:35.035Z,93866.00
2023-04-01T09:59:36.034Z,93864.00
2023-04-01T10:00:35.058Z,93860.00
2023-04-01T10:01:35.067Z,93850.00
2023-04-01T10:02:35.154Z,93846.00
2023-04-01T10:03:35.025Z,93848.00
2023-04-01T10:04:35.016Z,93852.00
2023-04-01T10:05:35.320Z,93850.00
2023-04-01T10:06:35.001Z,93852.00
2023-04-01T10:07:34.984Z,93848.00
2023-04-01T10:08:35.017Z,93846.00
2023-04-01T10:09:34.963Z,93842.00
2023-04-01T10:10:35.064Z,93844.00
2023-04-01T10:11:35.088Z,93842.00
2023-04-01T10:12:35.124Z,93844.00
2023-04-01T10:13:35.160Z,93844.00
2023-04-01T10:14:35.209Z,93842.00
2023-04-01T10:15:35.442Z,93837.00
2023-04-01T10:16:35.328Z,93838.00
2023-04-01T10:17:35.406Z,93838.00
2023-04-01T10:18:35.407Z,93837.00
2023-04-01T10:19:35.405Z,93844.00
2023-04-01T10:20:35.459Z,93838.00
2023-04-01T10:21:35.516Z,93833.00
2023-04-01T10:22:35.584Z,93833.00
2023-04-01T10:23:35.625Z,93833.00
2023-04-01T10:24:35.675Z,93829.00
2023-04-01T10:25:36.001Z,93829.00
2023-04-01T10:26:35.750Z,93829.00
2023-04-01T10:27:35.773Z,93825.00
2023-04-01T10:28:35.824Z,93825.00
2023-04-01T10:29:35.890Z,93823.00
2023-04-01T10:30:35.925Z,93829.00
2023-04-01T10:31:36.015Z,93827.00
2023-04-01T10:32:36.032Z,93825.00
2023-04-01T10:33:36.039Z,93827.00
2023-04-01T10:34:36.088Z,93825.00
2023-04-01T10:35:36.429Z,93823.00
2023-04-01T10:36:36.161Z,93825.00
2023-04-01T10:37:36.216Z,93819.00
2023-04-01T10:38:36.244Z,93819.00
2023-04-01T10:39:36.311Z,93819.00
2023-04-01T10:40:36.355Z,93817.00
2023-04-01T10:41:36.367Z,93817.00
2023-04-01T10:42:36.420Z,93817.00
2023-04-01T10:43:36.444Z,93817.00
2023-04-01T10:44:36.483Z,93815.00
2023-04-01T10:45:36.699Z,93813.00
2023-04-01T10:46:36.588Z,93811.00
2023-04-01T10:47:36.596Z,93809.00
2023-04-01T10:48:36.638Z,93809.00
2023-04-01T10:49:36.749Z,93805.00
2023-04-01T10:50:36.719Z,93807.00
2023-04-01T10:51:36.751Z,93807.00
2023-04-01T10:52:36.782Z,93807.00
2023-04-01T10:53:36.839Z,93803.00
2023-04-01T10:54:36.871Z,93801.00
2023-04-01T10:55:36.924Z,93803.00
2023-04-01T10:56:36.922Z,93797.00
2023-04-01T10:57:36.984Z,93799.00
2023-04-01T10:58:37.012Z,93795.00
2023-04-01T10:59:37.032Z,93795.00
2023-04-01T11:00:37.046Z,93799.00
2023-04-01T11:01:37.133Z,93793.00
2023-04-01T11:02:37.228Z,93793.00
2023-04-01T11:03:37.276Z,93791.00
2023-04-01T11:04:37.181Z,93791.00
2023-04-01T11:05:37.221Z,93795.00
2023-04-01T11:06:37.249Z,93793.00
2023-04-01T11:07:37.301Z,93790.00
2023-04-01T11:08:37.298Z,93791.00
2023-04-01T11:09:37.400Z,93791.00
2023-04-01T11:10:37.387Z,93788.00
2023-04-01T11:11:37.408Z,93784.00
2023-04-01T11:12:37.443Z,93782.00
2023-04-01T11:13:37.489Z,93778.00
2023-04-01T11:14:37.516Z,93776.00
2023-04-01T11:15:37.581Z,93774.00
2023-04-01T11:16:37.660Z,93774.00
2023-04-01T11:17:37.638Z,93772.00
2023-04-01T11:18:37.613Z,93772.00
2023-04-01T11:19:37.652Z,93772.00
2023-04-01T11:20:37.685Z,93770.00
2023-04-01T11:21:37.742Z,93764.00
2023-04-01T11:22:37.748Z,93762.00
2023-04-01T11:23:37.791Z,93768.00
2023-04-01T11:24:37.835Z,93764.00
2023-04-01T11:25:37.858Z,93764.00
2023-04-01T11:26:37.907Z,93762.00
2023-04-01T11:27:39.606Z,93760.00
2023-04-01T11:28:37.932Z,93768.00
2023-04-01T11:29:40.533Z,93760.00
2023-04-01T11:30:38.981Z,93760.00
2023-04-01T11:31:37.983Z,93762.00
2023-04-01T11:32:37.983Z,93756.00
2023-04-01T11:33:37.961Z,93762.00
2023-04-01T11:34:37.938Z,93758.00
2023-04-01T11:35:37.953Z,93758.00
2023-04-01T11:36:37.971Z,93758.00
2023-04-01T11:37:37.937Z,93758.00
2023-04-01T11:38:37.900Z,93758.00
2023-04-01T11:39:37.911Z,93756.00
2023-04-01T11:40:37.937Z,93754.00
2023-04-01T11:41:37.885Z,93758.00
2023-04-01T11:42:37.888Z,93756.00
2023-04-01T11:43:37.961Z,93758.00
2023-04-01T11:44:37.898Z,93754.00
2023-04-01T11:45:37.917Z,93752.00
2023-04-01T11:46:37.998Z,93748.00